Time;durP1;ratioP1;P1;durP2;ratioP2;P2;SDS_P1;SDS_P2;PMS_P1;PMS_P2;Temp;Humidity;BMP_temperature;BMP_pressure;BME280_temperature;BME280_humidity;BME280_pressure;Samples;Min_cycle;Max_cycle;Signal;HPM_P1;HPM_P2
2023/11/05 00:00:48;;;;;;;;;2.00;0.00;;;;;;;;5100271;27;45341;-76
2023/11/05 00:03:14;;;;;;;;;1.67;1.67;;;;;;;;5099575;27;46129;-75
2023/11/05 00:05:39;;;;;;;;;1.00;1.00;;;;;;;;5099042;27;45301;-75
2023/11/05 00:08:05;;;;;;;;;2.00;2.00;;;;;;;;5098969;27;45364;-76
2023/11/05 00:10:30;;;;;;;;;1.67;0.67;;;;;;;;5099617;27;45236;-76
2023/11/05 00:12:55;;;;;;;;;0.33;0.33;;;;;;;;5099363;27;45200;-76
2023/11/05 00:15:20;;;;;;;;;2.33;1.00;;;;;;;;5100387;27;45330;-75
2023/11/05 00:17:45;;;;;;;;;1.00;1.00;;;;;;;;5100346;27;45194;-75
2023/11/05 00:20:11;;;;;;;;;1.67;1.00;;;;;;;;5100073;27;45219;-76
2023/11/05 00:22:37;;;;;;;;;0.00;0.00;;;;;;;;5099457;27;45445;-76
2023/11/05 00:25:02;;;;;;;;;2.67;2.00;;;;;;;;5100216;27;45356;-76
2023/11/05 00:27:28;;;;;;;;;2.00;1.00;;;;;;;;5100383;27;45369;-76
2023/11/05 00:29:54;;;;;;;;;6.00;2.00;;;;;;;;5086245;27;45539;-76
2023/11/05 00:32:19;;;;;;;;;1.67;1.67;;;;;;;;5079601;28;45476;-76
2023/11/05 00:34:45;;;;;;;;;1.00;1.00;;;;;;;;5079767;28;45233;-75
2023/11/05 00:37:10;;;;;;;;;0.00;0.00;;;;;;;;5079628;28;45390;-76
2023/11/05 00:39:35;;;;;;;;;2.00;1.67;;;;;;;;5079580;28;45458;-76
2023/11/05 00:42:01;;;;;;;;;1.00;1.00;;;;;;;;5079459;28;45559;-75
2023/11/05 00:44:26;;;;;;;;;2.67;1.00;;;;;;;;5079705;28;45387;-75
2023/11/05 00:46:51;;;;;;;;;0.67;0.67;;;;;;;;5079343;28;45279;-76
2023/11/05 00:49:16;;;;;;;;;0.67;0.00;;;;;;;;5079332;28;45330;-75
2023/11/05 00:51:41;;;;;;;;;1.00;1.00;;;;;;;;5079350;28;45391;-75
2023/11/05 00:54:07;;;;;;;;;1.00;0.67;;;;;;;;5079411;28;45470;-76
2023/11/05 00:56:32;;;;;;;;;1.00;1.00;;;;;;;;5079706;28;45335;-75
2023/11/05 00:58:57;;;;;;;;;1.00;1.00;;;;;;;;5079461;28;45346;-76
2023/11/05 01:01:22;;;;;;;;;1.33;1.00;;;;;;;;5079086;28;45384;-76
2023/11/05 01:03:48;;;;;;;;;1.00;1.00;;;;;;;;5079400;28;45334;-77
2023/11/05 01:06:13;;;;;;;;;0.67;0.67;;;;;;;;5079207;28;45801;-77
2023/11/05 01:08:38;;;;;;;;;1.00;1.00;;;;;;;;5079182;28;45431;-76
2023/11/05 01:11:03;;;;;;;;;0.67;0.00;;;;;;;;5079255;28;45396;-76
2023/11/05 01:13:28;;;;;;;;;2.00;2.00;;;;;;;;5079108;28;45409;-75
2023/11/05 01:15:54;;;;;;;;;0.00;0.00;;;;;;;;5079042;28;45572;-76
2023/11/05 01:18:19;;;;;;;;;1.00;1.00;;;;;;;;5079223;28;45185;-75
2023/11/05 01:20:44;;;;;;;;;0.33;0.33;;;;;;;;5079010;28;45394;-75
2023/11/05 01:23:09;;;;;;;;;0.00;0.00;;;;;;;;5079046;28;45247;-75
2023/11/05 01:25:35;;;;;;;;;0.00;0.00;;;;;;;;5081446;28;45262;-76
2023/11/05 01:28:00;;;;;;;;;0.67;0.67;;;;;;;;5082589;28;45201;-75
2023/11/05 01:30:25;;;;;;;;;2.67;1.00;;;;;;;;5100211;27;46305;-76
2023/11/05 01:32:50;;;;;;;;;0.00;0.00;;;;;;;;5102852;27;45207;-76
2023/11/05 01:35:15;;;;;;;;;1.33;1.33;;;;;;;;5103162;27;45383;-75
2023/11/05 01:37:40;;;;;;;;;1.33;1.00;;;;;;;;5102754;27;45194;-76
2023/11/05 01:40:06;;;;;;;;;1.00;0.00;;;;;;;;5102724;27;45306;-76
2023/11/05 01:42:31;;;;;;;;;1.67;1.67;;;;;;;;5102672;27;45235;-75
2023/11/05 01:44:56;;;;;;;;;2.00;1.00;;;;;;;;5102663;27;45546;-75
2023/11/05 01:47:21;;;;;;;;;1.00;1.00;;;;;;;;5102408;27;45371;-78
2023/11/05 01:49:47;;;;;;;;;1.00;1.00;;;;;;;;5102355;27;45292;-76
2023/11/05 01:52:12;;;;;;;;;1.00;1.00;;;;;;;;5102659;27;45305;-75
2023/11/05 01:54:40;;;;;;;;;0.33;0.33;;;;;;;;5102751;27;45388;-75
2023/11/05 01:57:05;;;;;;;;;1.00;0.00;;;;;;;;5102432;27;45307;-75
2023/11/05 01:59:31;;;;;;;;;3.33;2.00;;;;;;;;5102038;27;45480;-75
2023/11/05 02:01:56;;;;;;;;;0.00;0.00;;;;;;;;5102326;27;45289;-75
2023/11/05 02:04:21;;;;;;;;;2.00;1.00;;;;;;;;5102609;27;45317;-75
2023/11/05 02:06:47;;;;;;;;;1.00;1.00;;;;;;;;5100796;27;47161;-75
2023/11/05 02:09:12;;;;;;;;;1.00;0.67;;;;;;;;5102177;27;46127;-75
2023/11/05 02:11:37;;;;;;;;;1.00;1.00;;;;;;;;5102295;27;45312;-75
2023/11/05 02:14:02;;;;;;;;;1.00;1.00;;;;;;;;5102253;27;45619;-75
2023/11/05 02:16:31;;;;;;;;;1.00;1.00;;;;;;;;5102146;27;45325;-76
2023/11/05 02:18:57;;;;;;;;;1.50;0.75;;;;;;;;5102068;27;45660;-75
2023/11/05 02:21:41;;;;;;;;;0.50;0.50;;;;;;;;5101989;27;45149;-77
2023/11/05 02:24:07;;;;;;;;;1.00;1.00;;;;;;;;5102152;27;45413;-76
2023/11/05 02:26:32;;;;;;;;;0.00;0.00;;;;;;;;5102044;27;45531;-76
2023/11/05 02:28:58;;;;;;;;;0.00;0.00;;;;;;;;5095986;27;46231;-75
2023/11/05 02:31:23;;;;;;;;;0.00;0.00;;;;;;;;5081349;28;45314;-76
2023/11/05 02:33:48;;;;;;;;;2.00;0.67;;;;;;;;5081700;28;45586;-76
2023/11/05 02:36:13;;;;;;;;;1.00;1.00;;;;;;;;5080672;28;45374;-76
2023/11/05 02:38:39;;;;;;;;;1.33;1.33;;;;;;;;5081310;28;45133;-76
2023/11/05 02:41:06;;;;;;;;;1.00;0.67;;;;;;;;5081306;28;45400;-76
2023/11/05 02:43:31;;;;;;;;;2.33;1.00;;;;;;;;5081438;28;45496;-77
2023/11/05 02:45:56;;;;;;;;;1.00;1.00;;;;;;;;5081131;28;45458;-76
2023/11/05 02:48:21;;;;;;;;;0.00;0.00;;;;;;;;5080824;28;46100;-77
2023/11/05 02:50:47;;;;;;;;;3.00;1.00;;;;;;;;5081000;28;45447;-76
2023/11/05 02:53:15;;;;;;;;;1.67;1.67;;;;;;;;5081401;28;45539;-76
2023/11/05 02:55:40;;;;;;;;;0.33;0.33;;;;;;;;5081169;28;45201;-76
2023/11/05 02:58:05;;;;;;;;;3.67;1.33;;;;;;;;5080869;28;46186;-76
2023/11/05 03:00:33;;;;;;;;;1.00;1.00;;;;;;;;5081156;28;45250;-77
2023/11/05 03:02:59;;;;;;;;;1.00;0.00;;;;;;;;5081008;28;45479;-76
2023/11/05 03:05:25;;;;;;;;;1.00;1.00;;;;;;;;5080916;28;45532;-75
2023/11/05 03:07:51;;;;;;;;;0.00;0.00;;;;;;;;5080595;28;45544;-75
2023/11/05 03:10:16;;;;;;;;;0.67;0.67;;;;;;;;5080834;28;45306;-75
2023/11/05 03:12:41;;;;;;;;;0.33;0.33;;;;;;;;5081105;28;45282;-76
2023/11/05 03:15:07;;;;;;;;;2.00;1.00;;;;;;;;5080830;28;45860;-75
2023/11/05 03:17:36;;;;;;;;;0.00;0.00;;;;;;;;5080595;28;45839;-75
2023/11/05 03:20:01;;;;;;;;;0.00;0.00;;;;;;;;5080715;28;45620;-75
2023/11/05 03:22:26;;;;;;;;;2.00;1.00;;;;;;;;5080314;28;45393;-76
2023/11/05 03:24:51;;;;;;;;;1.00;1.00;;;;;;;;5079830;28;45559;-76
2023/11/05 03:27:16;;;;;;;;;0.33;0.33;;;;;;;;5080579;28;45330;-76
2023/11/05 03:29:42;;;;;;;;;1.00;0.67;;;;;;;;5092415;27;45358;-76
2023/11/05 03:32:07;;;;;;;;;1.00;1.00;;;;;;;;5100992;27;45389;-75
2023/11/05 03:34:32;;;;;;;;;0.00;0.00;;;;;;;;5100982;27;45435;-76
2023/11/05 03:36:57;;;;;;;;;1.00;1.00;;;;;;;;5100702;27;45356;-76
2023/11/05 03:39:22;;;;;;;;;1.00;0.00;;;;;;;;5100759;27;45326;-75
2023/11/05 03:41:48;;;;;;;;;1.00;1.00;;;;;;;;5101183;27;45131;-76
2023/11/05 03:44:13;;;;;;;;;2.00;1.00;;;;;;;;5100849;27;45426;-76
2023/11/05 03:46:39;;;;;;;;;0.33;0.00;;;;;;;;5100450;27;45508;-75
2023/11/05 03:49:04;;;;;;;;;0.00;0.00;;;;;;;;5100812;27;45396;-76
2023/11/05 03:51:29;;;;;;;;;1.00;1.00;;;;;;;;5100699;27;45601;-75
2023/11/05 03:53:55;;;;;;;;;0.67;0.67;;;;;;;;5100708;27;45348;-76
2023/11/05 03:56:20;;;;;;;;;0.67;0.33;;;;;;;;5100586;27;46084;-76
2023/11/05 03:58:45;;;;;;;;;1.00;0.00;;;;;;;;5100740;27;45303;-75
2023/11/05 04:01:18;;;;;;;;;0.00;0.00;;;;;;;;5100550;27;45559;-76
2023/11/05 04:03:43;;;;;;;;;0.00;0.00;;;;;;;;5100568;27;45364;-76
2023/11/05 04:06:09;;;;;;;;;1.00;1.00;;;;;;;;5100446;27;45313;-76
2023/11/05 04:08:34;;;;;;;;;0.00;0.00;;;;;;;;5100342;27;45630;-76
2023/11/05 04:10:59;;;;;;;;;1.00;1.00;;;;;;;;5100531;27;45352;-76
2023/11/05 04:13:24;;;;;;;;;0.33;0.33;;;;;;;;5100382;27;45429;-76
2023/11/05 04:15:49;;;;;;;;;2.00;1.00;;;;;;;;5100227;27;45357;-77
2023/11/05 04:18:15;;;;;;;;;2.33;0.00;;;;;;;;5100468;27;45425;-76
2023/11/05 04:20:40;;;;;;;;;1.00;1.00;;;;;;;;5100363;27;45372;-77
2023/11/05 04:23:05;;;;;;;;;1.33;1.00;;;;;;;;5100327;27;45395;-77
2023/11/05 04:25:30;;;;;;;;;1.67;1.67;;;;;;;;5100273;27;46296;-76
2023/11/05 04:27:55;;;;;;;;;0.33;0.33;;;;;;;;5100167;27;45301;-76
2023/11/05 04:30:21;;;;;;;;;1.00;0.00;;;;;;;;5082563;27;45305;-76
2023/11/05 04:32:46;;;;;;;;;2.00;0.00;;;;;;;;5079609;28;45309;-76
2023/11/05 04:35:11;;;;;;;;;0.50;0.25;;;;;;;;5079738;28;45391;-76
2023/11/05 04:37:36;;;;;;;;;0.00;0.00;;;;;;;;5079480;28;45345;-75
2023/11/05 04:40:04;;;;;;;;;2.00;0.00;;;;;;;;5079692;28;45349;-78
2023/11/05 04:42:29;;;;;;;;;0.25;0.00;;;;;;;;5079651;28;45429;-79
2023/11/05 04:44:55;;;;;;;;;1.00;1.00;;;;;;;;5079564;28;45447;-78
2023/11/05 04:47:20;;;;;;;;;1.00;1.00;;;;;;;;5079210;28;45277;-76
2023/11/05 04:49:45;;;;;;;;;1.33;1.33;;;;;;;;5079734;28;45196;-77
2023/11/05 04:52:10;;;;;;;;;1.00;1.00;;;;;;;;5079382;28;45510;-77
2023/11/05 04:54:38;;;;;;;;;0.00;0.00;;;;;;;;5079492;28;46256;-76
2023/11/05 04:57:04;;;;;;;;;1.00;0.00;;;;;;;;5079430;28;45257;-78
2023/11/05 04:59:29;;;;;;;;;0.50;0.00;;;;;;;;5080265;28;45515;-77
2023/11/05 05:01:55;;;;;;;;;2.00;0.50;;;;;;;;5082831;28;45436;-76
2023/11/05 05:04:20;;;;;;;;;0.00;0.00;;;;;;;;5082771;28;45514;-77
2023/11/05 05:06:49;;;;;;;;;1.00;0.00;;;;;;;;5082877;28;45416;-78
2023/11/05 05:09:15;;;;;;;;;0.00;0.00;;;;;;;;5082956;28;45315;-76
2023/11/05 05:11:40;;;;;;;;;0.00;0.00;;;;;;;;5082881;28;45340;-76
2023/11/05 05:14:05;;;;;;;;;0.00;0.00;;;;;;;;5082484;28;45188;-78
2023/11/05 05:16:31;;;;;;;;;0.00;0.00;;;;;;;;5082630;28;45303;-78
2023/11/05 05:18:56;;;;;;;;;1.00;1.00;;;;;;;;5082905;28;45214;-76
2023/11/05 05:21:21;;;;;;;;;0.00;0.00;;;;;;;;5082532;28;45462;-77
2023/11/05 05:23:46;;;;;;;;;1.33;0.00;;;;;;;;5082470;28;46069;-75
2023/11/05 05:26:12;;;;;;;;;0.00;0.00;;;;;;;;5082649;28;45251;-77
2023/11/05 05:28:37;;;;;;;;;0.67;0.67;;;;;;;;5085844;27;45338;-75
2023/11/05 05:31:02;;;;;;;;;0.00;0.00;;;;;;;;5102664;27;45317;-76
2023/11/05 05:33:27;;;;;;;;;0.00;0.00;;;;;;;;5102781;27;45329;-76
2023/11/05 05:35:52;;;;;;;;;0.00;0.00;;;;;;;;5102974;27;45321;-76
2023/11/05 05:38:18;;;;;;;;;0.00;0.00;;;;;;;;5103159;27;45445;-78
2023/11/05 05:40:43;;;;;;;;;3.00;1.00;;;;;;;;5102779;27;45365;-78
2023/11/05 05:43:08;;;;;;;;;0.25;0.25;;;;;;;;5102757;27;46406;-78
2023/11/05 05:45:33;;;;;;;;;1.00;0.00;;;;;;;;5102687;27;45298;-78
2023/11/05 05:47:58;;;;;;;;;0.00;0.00;;;;;;;;5102748;27;45362;-79
2023/11/05 05:50:24;;;;;;;;;1.00;1.00;;;;;;;;5102351;27;45486;-76
2023/11/05 05:52:49;;;;;;;;;1.00;1.00;;;;;;;;5102695;27;46029;-79
2023/11/05 05:55:15;;;;;;;;;0.00;0.00;;;;;;;;5102842;27;45349;-76
2023/11/05 05:57:40;;;;;;;;;1.25;1.25;;;;;;;;5102752;27;45235;-76
2023/11/05 06:00:06;;;;;;;;;1.00;1.00;;;;;;;;5102197;27;45473;-76
2023/11/05 06:02:31;;;;;;;;;0.50;0.50;;;;;;;;5102113;27;45449;-76
2023/11/05 06:04:56;;;;;;;;;1.00;1.00;;;;;;;;5102060;27;45280;-76
2023/11/05 06:07:22;;;;;;;;;0.00;0.00;;;;;;;;5101269;27;45381;-76
2023/11/05 06:09:48;;;;;;;;;1.00;0.00;;;;;;;;5102391;27;45317;-77
2023/11/05 06:12:13;;;;;;;;;1.25;1.00;;;;;;;;5101016;27;45497;-75
2023/11/05 06:14:38;;;;;;;;;1.67;1.67;;;;;;;;5102365;27;45274;-75
2023/11/05 06:17:04;;;;;;;;;0.00;0.00;;;;;;;;5102351;27;45528;-75
2023/11/05 06:19:29;;;;;;;;;0.75;0.00;;;;;;;;5101643;27;45322;-78
2023/11/05 06:21:54;;;;;;;;;0.00;0.00;;;;;;;;5102009;27;46480;-77
2023/11/05 06:24:19;;;;;;;;;0.00;0.00;;;;;;;;5102149;27;45420;-78
2023/11/05 06:26:44;;;;;;;;;0.00;0.00;;;;;;;;5068301;27;45263;-77
2023/11/05 06:29:09;;;;;;;;;0.67;0.00;;;;;;;;5075496;27;45599;-78
2023/11/05 06:31:35;;;;;;;;;2.00;1.00;;;;;;;;5101954;27;45546;-75
2023/11/05 06:34:00;;;;;;;;;0.00;0.00;;;;;;;;5102075;27;45331;-77
2023/11/05 06:36:25;;;;;;;;;0.33;0.33;;;;;;;;5102041;27;45357;-77
2023/11/05 06:38:50;;;;;;;;;2.00;0.33;;;;;;;;5101806;27;45496;-76
2023/11/05 06:41:16;;;;;;;;;0.00;0.00;;;;;;;;5101705;27;45309;-77
2023/11/05 06:43:41;;;;;;;;;2.00;0.00;;;;;;;;5101878;27;45208;-76
2023/11/05 06:46:06;;;;;;;;;0.67;0.67;;;;;;;;5101718;27;45137;-76
2023/11/05 06:48:32;;;;;;;;;0.00;0.00;;;;;;;;5101440;27;45551;-75
2023/11/05 06:50:57;;;;;;;;;0.00;0.00;;;;;;;;5101533;27;45306;-77
2023/11/05 06:53:23;;;;;;;;;0.33;0.00;;;;;;;;5101695;27;45292;-76
2023/11/05 06:55:48;;;;;;;;;0.00;0.00;;;;;;;;5101415;27;45307;-76
2023/11/05 06:58:17;;;;;;;;;1.00;0.67;;;;;;;;5101286;27;45539;-74
2023/11/05 07:00:42;;;;;;;;;0.75;0.75;;;;;;;;5101249;27;45482;-76
2023/11/05 07:03:07;;;;;;;;;3.67;3.67;;;;;;;;5101390;27;45341;-76
2023/11/05 07:05:33;;;;;;;;;1.67;1.67;;;;;;;;5101578;27;45376;-76
2023/11/05 07:07:58;;;;;;;;;1.00;1.00;;;;;;;;5101084;27;45333;-76
2023/11/05 07:10:24;;;;;;;;;0.00;0.00;;;;;;;;5087135;27;45457;-78
2023/11/05 07:12:49;;;;;;;;;1.33;1.33;;;;;;;;5060596;28;45327;-79
2023/11/05 07:15:15;;;;;;;;;0.00;0.00;;;;;;;;5060699;28;45587;-76
2023/11/05 07:17:40;;;;;;;;;0.25;0.25;;;;;;;;5060310;28;45253;-73
2023/11/05 07:20:06;;;;;;;;;3.00;3.00;;;;;;;;5077549;28;46136;-74
2023/11/05 07:22:31;;;;;;;;;1.67;1.00;;;;;;;;5080307;28;45338;-74
2023/11/05 07:24:56;;;;;;;;;5.00;5.00;;;;;;;;5080879;27;45231;-73
2023/11/05 07:27:22;;;;;;;;;1.33;1.33;;;;;;;;5080766;27;45310;-74
2023/11/05 07:29:47;;;;;;;;;3.00;2.33;;;;;;;;5080269;27;45351;-74
2023/11/05 07:32:12;;;;;;;;;2.67;2.67;;;;;;;;5080358;28;45242;-74
2023/11/05 07:34:38;;;;;;;;;2.00;2.00;;;;;;;;5079636;28;45363;-75
2023/11/05 07:37:03;;;;;;;;;0.00;0.00;;;;;;;;5069441;28;45337;-75
2023/11/05 07:39:28;;;;;;;;;1.00;1.00;;;;;;;;5076268;28;46001;-74
2023/11/05 07:41:54;;;;;;;;;1.00;0.00;;;;;;;;5076658;28;45437;-74
2023/11/05 07:44:20;;;;;;;;;0.00;0.00;;;;;;;;5069868;28;45332;-75
2023/11/05 07:46:45;;;;;;;;;0.00;0.00;;;;;;;;5069997;28;45279;-74
2023/11/05 07:49:10;;;;;;;;;0.25;0.25;;;;;;;;5073758;28;45359;-75
2023/11/05 07:51:37;;;;;;;;;1.00;1.00;;;;;;;;5074058;28;45326;-75
2023/11/05 07:54:02;;;;;;;;;1.00;1.00;;;;;;;;5060155;28;45406;-77
2023/11/05 07:56:27;;;;;;;;;2.33;2.33;;;;;;;;5059842;28;45442;-76
2023/11/05 07:58:52;;;;;;;;;2.00;1.50;;;;;;;;5064723;28;46484;-76
2023/11/05 08:01:18;;;;;;;;;0.00;0.00;;;;;;;;5068151;28;45347;-78
2023/11/05 08:03:43;;;;;;;;;1.00;1.00;;;;;;;;5070647;28;45299;-76
2023/11/05 08:06:08;;;;;;;;;1.00;0.75;;;;;;;;5068040;28;45303;-75
2023/11/05 08:08:34;;;;;;;;;0.50;0.50;;;;;;;;5073732;28;45317;-76
2023/11/05 08:10:59;;;;;;;;;0.50;0.50;;;;;;;;5072118;28;45904;-76
2023/11/05 08:13:25;;;;;;;;;0.75;0.75;;;;;;;;5072221;28;45461;-76
2023/11/05 08:15:50;;;;;;;;;0.50;0.50;;;;;;;;5068121;28;45227;-76
2023/11/05 08:18:15;;;;;;;;;0.67;0.67;;;;;;;;5064675;28;45390;-76
2023/11/05 08:20:40;;;;;;;;;4.33;1.33;;;;;;;;5069561;28;45191;-76
2023/11/05 08:23:06;;;;;;;;;1.00;1.00;;;;;;;;5061429;28;45471;-75
2023/11/05 08:25:31;;;;;;;;;1.00;1.00;;;;;;;;5073667;28;45699;-75
2023/11/05 08:27:56;;;;;;;;;1.00;1.00;;;;;;;;5079473;28;46215;-75
2023/11/05 08:30:23;;;;;;;;;0.00;0.00;;;;;;;;5077565;27;45300;-75
2023/11/05 08:32:49;;;;;;;;;0.00;0.00;;;;;;;;5079612;28;45357;-75
2023/11/05 08:35:14;;;;;;;;;0.00;0.00;;;;;;;;5080904;27;46730;-75
2023/11/05 08:37:40;;;;;;;;;0.00;0.00;;;;;;;;5083140;28;45379;-77
2023/11/05 08:40:09;;;;;;;;;1.00;1.00;;;;;;;;5082683;27;45349;-75
2023/11/05 08:42:34;;;;;;;;;0.00;0.00;;;;;;;;5063349;28;46859;-76
2023/11/05 08:44:59;;;;;;;;;1.25;0.50;;;;;;;;5062631;28;45232;-76
2023/11/05 08:47:24;;;;;;;;;3.67;3.67;;;;;;;;5062260;28;45290;-76
2023/11/05 08:49:50;;;;;;;;;1.50;0.75;;;;;;;;5061689;28;45318;-77
2023/11/05 08:52:15;;;;;;;;;1.00;1.00;;;;;;;;5059552;28;45399;-77
2023/11/05 08:54:41;;;;;;;;;1.00;1.00;;;;;;;;5062710;28;45315;-77
2023/11/05 08:57:06;;;;;;;;;3.00;1.00;;;;;;;;5062761;28;45306;-76
2023/11/05 08:59:31;;;;;;;;;0.75;0.75;;;;;;;;5064626;28;45326;-78
2023/11/05 09:01:58;;;;;;;;;1.67;1.67;;;;;;;;5062010;28;45234;-75
2023/11/05 09:04:23;;;;;;;;;0.00;0.00;;;;;;;;5062714;28;45468;-76
2023/11/05 09:06:48;;;;;;;;;2.67;2.00;;;;;;;;5062261;28;45311;-76
2023/11/05 09:09:15;;;;;;;;;1.00;1.00;;;;;;;;5062431;28;45335;-75
2023/11/05 09:11:40;;;;;;;;;0.67;0.67;;;;;;;;5062719;28;45338;-78
2023/11/05 09:14:05;;;;;;;;;2.00;2.00;;;;;;;;5062169;28;45358;-77
2023/11/05 09:16:31;;;;;;;;;2.00;2.00;;;;;;;;5062129;28;45342;-77
2023/11/05 09:18:56;;;;;;;;;1.00;1.00;;;;;;;;5062178;28;45649;-77
2023/11/05 09:21:21;;;;;;;;;3.00;1.67;;;;;;;;5062478;28;45319;-76
2023/11/05 09:23:46;;;;;;;;;1.75;0.00;;;;;;;;5068234;28;45504;-77
2023/11/05 09:26:11;;;;;;;;;1.25;1.25;;;;;;;;5082431;28;45266;-76
2023/11/05 09:28:37;;;;;;;;;2.67;2.00;;;;;;;;5085102;27;45291;-76
2023/11/05 09:31:02;;;;;;;;;1.00;1.00;;;;;;;;5102800;27;45338;-76
2023/11/05 09:33:28;;;;;;;;;0.25;0.25;;;;;;;;5103059;27;45300;-76
2023/11/05 09:35:53;;;;;;;;;1.67;1.00;;;;;;;;5101366;27;46764;-76
2023/11/05 09:38:18;;;;;;;;;0.00;0.00;;;;;;;;5083003;27;45271;-76
2023/11/05 09:40:44;;;;;;;;;1.00;1.00;;;;;;;;5082014;27;45777;-77
2023/11/05 09:43:10;;;;;;;;;1.25;1.25;;;;;;;;5082315;28;45639;-77
2023/11/05 09:45:36;;;;;;;;;4.33;4.00;;;;;;;;5081777;28;46105;-75
2023/11/05 09:48:05;;;;;;;;;4.00;4.00;;;;;;;;5081998;28;45284;-77
2023/11/05 09:50:32;;;;;;;;;9.33;8.00;;;;;;;;5082098;28;45334;-78
2023/11/05 09:53:07;;;;;;;;;4.00;3.00;;;;;;;;5080483;28;45430;-76
2023/11/05 09:55:33;;;;;;;;;7.00;7.00;;;;;;;;5079626;28;46354;-77
2023/11/05 09:58:00;;;;;;;;;3.00;2.33;;;;;;;;5072139;28;45376;-78
2023/11/05 10:00:25;;;;;;;;;5.67;5.67;;;;;;;;5082107;28;45343;-83
2023/11/05 10:02:57;;;;;;;;;10.00;8.00;;;;;;;;5082165;28;45328;-83
2023/11/05 10:05:26;;;;;;;;;5.67;5.67;;;;;;;;5082281;28;46000;-85
2023/11/05 10:07:51;;;;;;;;;4.00;3.00;;;;;;;;5082508;28;45137;-82
2023/11/05 10:10:20;;;;;;;;;2.33;2.33;;;;;;;;5082341;28;45311;-86
2023/11/05 10:12:45;;;;;;;;;1.33;1.33;;;;;;;;5075978;28;46200;-83
2023/11/05 10:15:10;;;;;;;;;1.25;1.25;;;;;;;;5073098;28;45293;-85
2023/11/05 10:17:36;;;;;;;;;3.00;1.00;;;;;;;;5079606;28;45654;-86
2023/11/05 10:20:02;;;;;;;;;2.00;1.00;;;;;;;;5071752;28;45368;-86
2023/11/05 10:22:27;;;;;;;;;0.00;0.00;;;;;;;;5062403;28;45340;-82
2023/11/05 10:24:52;;;;;;;;;3.00;1.67;;;;;;;;5062021;28;46193;-84
2023/11/05 10:27:27;;;;;;;;;1.67;1.67;;;;;;;;5061937;28;45292;-82
2023/11/05 10:29:53;;;;;;;;;2.50;0.75;;;;;;;;5088361;27;45507;-81
2023/11/05 10:32:19;;;;;;;;;1.25;1.25;;;;;;;;5101742;27;45241;-81
2023/11/05 10:34:44;;;;;;;;;2.33;2.33;;;;;;;;5102175;27;45265;-84
2023/11/05 10:37:10;;;;;;;;;2.00;2.00;;;;;;;;5102373;27;45240;-83
2023/11/05 10:39:36;;;;;;;;;1.67;1.67;;;;;;;;5062771;27;45319;-84
2023/11/05 10:42:02;;;;;;;;;4.33;2.67;;;;;;;;5064449;28;45385;-86
2023/11/05 10:44:28;;;;;;;;;7.00;4.67;;;;;;;;5069777;28;46413;-84
2023/11/05 10:46:56;;;;;;;;;4.00;2.33;;;;;;;;5073784;28;45394;-86
2023/11/05 10:49:22;;;;;;;;;4.67;3.33;;;;;;;;5074811;28;45550;-85
2023/11/05 10:51:48;;;;;;;;;2.33;2.33;;;;;;;;5075710;28;45843;-84
2023/11/05 10:54:13;;;;;;;;;1.67;1.33;;;;;;;;5064738;28;45999;-82
2023/11/05 10:56:41;;;;;;;;;0.67;0.67;;;;;;;;5075241;28;45384;-81
2023/11/05 10:59:06;;;;;;;;;3.00;1.33;;;;;;;;5071913;28;45245;-85
2023/11/05 11:01:35;;;;;;;;;4.67;3.33;;;;;;;;5060237;28;47360;-84
2023/11/05 11:04:10;;;;;;;;;4.00;4.00;;;;;;;;5059810;28;46273;-85
2023/11/05 11:06:43;;;;;;;;;3.67;2.33;;;;;;;;5060245;28;45369;-85
2023/11/05 11:09:20;;;;;;;;;1.00;1.00;;;;;;;;5059314;28;45285;-84
2023/11/05 11:11:45;;;;;;;;;2.00;2.00;;;;;;;;5061460;28;45282;-84
2023/11/05 11:14:11;;;;;;;;;4.33;2.00;;;;;;;;5059466;28;47299;-84
2023/11/05 11:16:37;;;;;;;;;1.00;1.00;;;;;;;;5059669;28;45249;-84
2023/11/05 11:19:04;;;;;;;;;1.00;1.00;;;;;;;;5061141;28;45311;-82
2023/11/05 11:21:29;;;;;;;;;1.00;0.33;;;;;;;;5060490;28;45366;-85
2023/11/05 11:24:02;;;;;;;;;1.33;1.33;;;;;;;;5059303;28;46274;-82
2023/11/05 11:26:28;;;;;;;;;3.67;2.67;;;;;;;;5060288;28;45544;-86
2023/11/05 11:28:55;;;;;;;;;2.00;2.00;;;;;;;;5068992;27;45493;-85
2023/11/05 11:31:21;;;;;;;;;0.67;0.67;;;;;;;;5101178;27;45478;-85
2023/11/05 11:33:47;;;;;;;;;0.33;0.33;;;;;;;;5101213;27;46033;-82
2023/11/05 11:36:12;;;;;;;;;1.00;1.00;;;;;;;;5101012;27;45212;-85
2023/11/05 11:38:37;;;;;;;;;2.00;0.67;;;;;;;;5101408;27;45318;-82
2023/11/05 11:41:02;;;;;;;;;2.00;2.00;;;;;;;;5101674;27;45239;-83
2023/11/05 11:43:28;;;;;;;;;1.00;1.00;;;;;;;;5101208;27;46562;-85
2023/11/05 11:45:54;;;;;;;;;0.67;0.67;;;;;;;;5101405;27;45226;-84
2023/11/05 11:48:25;;;;;;;;;1.67;0.67;;;;;;;;5102021;27;45214;-84
2023/11/05 11:51:02;;;;;;;;;0.50;0.50;;;;;;;;5099673;27;45998;-86
2023/11/05 11:53:33;;;;;;;;;2.50;0.00;;;;;;;;5100974;27;45293;-83
2023/11/05 11:55:59;;;;;;;;;2.00;1.00;;;;;;;;5100873;27;45378;-86
2023/11/05 11:58:25;;;;;;;;;2.67;1.00;;;;;;;;5101213;27;45364;-84
2023/11/05 12:00:54;;;;;;;;;1.00;0.00;;;;;;;;5101217;27;45234;-88
2023/11/05 12:03:19;;;;;;;;;0.67;0.67;;;;;;;;5100863;27;46393;-85
2023/11/05 12:05:44;;;;;;;;;0.00;0.00;;;;;;;;5101654;27;45215;-89
2023/11/05 12:08:11;;;;;;;;;1.50;0.25;;;;;;;;5101299;27;45354;-87
2023/11/05 12:10:37;;;;;;;;;0.00;0.00;;;;;;;;5101026;27;45332;-87
2023/11/05 12:13:02;;;;;;;;;1.00;1.00;;;;;;;;5100754;27;47356;-86
2023/11/05 12:15:27;;;;;;;;;0.00;0.00;;;;;;;;5100572;27;45297;-86
2023/11/05 12:17:52;;;;;;;;;0.00;0.00;;;;;;;;5101040;27;45409;-83
2023/11/05 12:20:18;;;;;;;;;0.00;0.00;;;;;;;;5100404;27;45542;-82
2023/11/05 12:22:46;;;;;;;;;0.00;0.00;;;;;;;;5099266;27;47561;-80
2023/11/05 12:25:12;;;;;;;;;0.00;0.00;;;;;;;;5100614;27;45343;-85
2023/11/05 12:27:47;;;;;;;;;0.00;0.00;;;;;;;;5100658;27;45236;-85
2023/11/05 12:30:19;;;;;;;;;0.33;0.33;;;;;;;;5083880;27;45333;-84
2023/11/05 12:32:44;;;;;;;;;0.00;0.00;;;;;;;;5078730;28;47022;-82
2023/11/05 12:35:10;;;;;;;;;1.50;1.00;;;;;;;;5079823;28;45452;-80
2023/11/05 12:37:36;;;;;;;;;1.00;1.00;;;;;;;;5080159;28;45264;-83
2023/11/05 12:40:01;;;;;;;;;1.00;1.00;;;;;;;;5079844;28;45431;-85
2023/11/05 12:42:27;;;;;;;;;0.00;0.00;;;;;;;;5079838;28;46658;-84
2023/11/05 12:44:52;;;;;;;;;1.00;1.00;;;;;;;;5079883;28;45178;-81
2023/11/05 12:47:18;;;;;;;;;0.00;0.00;;;;;;;;5079267;28;45209;-84
2023/11/05 12:49:44;;;;;;;;;1.00;0.00;;;;;;;;5079452;28;45255;-83
2023/11/05 12:52:09;;;;;;;;;1.00;1.00;;;;;;;;5079399;28;45603;-84
2023/11/05 12:54:34;;;;;;;;;0.00;0.00;;;;;;;;5078136;28;45242;-83
2023/11/05 12:57:00;;;;;;;;;1.00;1.00;;;;;;;;5078309;28;45739;-83
2023/11/05 12:59:26;;;;;;;;;1.00;0.75;;;;;;;;5079337;28;45488;-83
2023/11/05 13:01:51;;;;;;;;;0.75;0.75;;;;;;;;5079920;28;45340;-84
2023/11/05 13:04:16;;;;;;;;;1.50;1.50;;;;;;;;5080583;28;45325;-82
2023/11/05 13:06:42;;;;;;;;;1.75;0.50;;;;;;;;5079605;28;45605;-82
2023/11/05 13:09:07;;;;;;;;;0.00;0.00;;;;;;;;5079226;28;45492;-82
2023/11/05 13:11:32;;;;;;;;;2.00;2.00;;;;;;;;5079232;28;46040;-81
2023/11/05 13:13:58;;;;;;;;;1.25;1.25;;;;;;;;5078693;28;45319;-81
2023/11/05 13:16:23;;;;;;;;;0.00;0.00;;;;;;;;5079163;28;45392;-79
2023/11/05 13:18:49;;;;;;;;;0.33;0.00;;;;;;;;5079032;28;45499;-81
2023/11/05 13:21:14;;;;;;;;;0.00;0.00;;;;;;;;5080905;28;46014;-83
2023/11/05 13:23:39;;;;;;;;;2.00;2.00;;;;;;;;5082707;28;45357;-81
2023/11/05 13:26:05;;;;;;;;;1.33;1.00;;;;;;;;5082618;28;45424;-82
2023/11/05 13:28:30;;;;;;;;;0.00;0.00;;;;;;;;5084289;27;45342;-83
2023/11/05 13:30:58;;;;;;;;;1.75;1.00;;;;;;;;5102757;27;46079;-82
2023/11/05 13:33:23;;;;;;;;;5.33;5.33;;;;;;;;5102877;27;45296;-83
2023/11/05 13:35:48;;;;;;;;;7.00;5.00;;;;;;;;5102960;27;45364;-86
2023/11/05 13:38:13;;;;;;;;;9.67;8.67;;;;;;;;5102733;27;45304;-82
2023/11/05 13:40:39;;;;;;;;;5.00;5.00;;;;;;;;5100715;27;47399;-83
2023/11/05 13:43:04;;;;;;;;;4.00;4.00;;;;;;;;5102734;27;45209;-86
2023/11/05 13:45:29;;;;;;;;;4.33;4.33;;;;;;;;5103025;27;45215;-86
2023/11/05 13:47:54;;;;;;;;;5.00;5.00;;;;;;;;5102282;27;45404;-83
2023/11/05 13:50:20;;;;;;;;;4.75;4.00;;;;;;;;5102539;27;46233;-82
2023/11/05 13:52:45;;;;;;;;;3.00;3.00;;;;;;;;5102971;27;45248;-83
2023/11/05 13:55:11;;;;;;;;;0.75;0.75;;;;;;;;5103725;27;45349;-85
2023/11/05 13:57:36;;;;;;;;;3.00;1.00;;;;;;;;5103200;27;45344;-90
2023/11/05 14:00:03;;;;;;;;;2.75;2.75;;;;;;;;5101371;27;47229;-87
2023/11/05 14:02:29;;;;;;;;;2.00;2.00;;;;;;;;5103136;27;45435;-88
2023/11/05 14:04:54;;;;;;;;;1.50;1.50;;;;;;;;5102561;27;45374;-84
2023/11/05 14:07:19;;;;;;;;;5.00;1.25;;;;;;;;5101604;27;47075;-84
2023/11/05 14:09:44;;;;;;;;;1.50;1.00;;;;;;;;5103766;27;45572;-84
2023/11/05 14:12:10;;;;;;;;;1.00;1.00;;;;;;;;5102987;27;45267;-87
2023/11/05 14:14:35;;;;;;;;;1.50;1.50;;;;;;;;5101458;27;45323;-88
2023/11/05 14:17:01;;;;;;;;;3.00;3.00;;;;;;;;5100803;27;46324;-85
2023/11/05 14:19:27;;;;;;;;;4.50;4.50;;;;;;;;5102083;27;45336;-84
2023/11/05 14:21:53;;;;;;;;;4.00;4.00;;;;;;;;5102317;27;45266;-84
2023/11/05 14:24:18;;;;;;;;;5.00;5.00;;;;;;;;5102387;27;45231;-86
2023/11/05 14:26:44;;;;;;;;;5.67;4.67;;;;;;;;5102142;27;45279;-84
2023/11/05 14:29:11;;;;;;;;;2.67;2.67;;;;;;;;5094682;27;45229;-83
2023/11/05 14:31:36;;;;;;;;;3.00;3.00;;;;;;;;5080777;28;45318;-83
2023/11/05 14:34:02;;;;;;;;;3.33;3.33;;;;;;;;5081143;28;45374;-82